sensor_id;sensor_type;location;lat;lon;timestamp;pressure;altitude;pressure_sealevel;temperature;humidity
78317;BME280;67572;50.930;18.276;2023-03-01T00:00:53;100378.94;;;-2.44;69.15
78317;BME280;67572;50.930;18.276;2023-03-01T00:03:59;100382.25;;;-2.84;69.94
78317;BME280;67572;50.930;18.276;2023-03-01T00:07:05;100386.53;;;-2.93;70.87
78317;BME280;67572;50.930;18.276;2023-03-01T00:10:11;100384.88;;;-2.77;70.82
78317;BME280;67572;50.930;18.276;2023-03-01T00:13:15;100385.69;;;-2.89;71.83
78317;BME280;67572;50.930;18.276;2023-03-01T00:16:22;100388.31;;;-2.83;71.83
78317;BME280;67572;50.930;18.276;2023-03-01T00:19:28;100390.00;;;-2.88;71.61
78317;BME280;67572;50.930;18.276;2023-03-01T00:22:33;100382.88;;;-3.21;72.27
78317;BME280;67572;50.930;18.276;2023-03-01T00:25:42;100379.50;;;-3.07;72.32
78317;BME280;67572;50.930;18.276;2023-03-01T00:28:47;100376.03;;;-3.05;72.09
78317;BME280;67572;50.930;18.276;2023-03-01T00:31:52;100374.31;;;-3.03;72.41
78317;BME280;67572;50.930;18.276;2023-03-01T00:34:58;100360.47;;;-3.01;72.34
78317;BME280;67572;50.930;18.276;2023-03-01T00:38:03;100367.28;;;-3.24;72.53
78317;BME280;67572;50.930;18.276;2023-03-01T00:41:12;100363.03;;;-3.02;72.74
78317;BME280;67572;50.930;18.276;2023-03-01T00:44:18;100357.78;;;-3.13;72.98
78317;BME280;67572;50.930;18.276;2023-03-01T00:47:23;100357.69;;;-3.25;72.75
78317;BME280;67572;50.930;18.276;2023-03-01T00:50:29;100362.81;;;-3.39;73.35
78317;BME280;67572;50.930;18.276;2023-03-01T00:53:35;100356.66;;;-3.50;74.08
78317;BME280;67572;50.930;18.276;2023-03-01T00:56:41;100358.44;;;-3.43;73.24
78317;BME280;67572;50.930;18.276;2023-03-01T00:59:46;100351.31;;;-3.69;73.62
78317;BME280;67572;50.930;18.276;2023-03-01T01:02:51;100352.94;;;-3.80;74.74
78317;BME280;67572;50.930;18.276;2023-03-01T01:05:56;100349.53;;;-3.73;75.07
78317;BME280;67572;50.930;18.276;2023-03-01T01:09:02;100347.75;;;-3.81;75.33
78317;BME280;67572;50.930;18.276;2023-03-01T01:12:11;100348.41;;;-4.05;75.30
78317;BME280;67572;50.930;18.276;2023-03-01T01:15:17;100348.28;;;-4.16;74.69
78317;BME280;67572;50.930;18.276;2023-03-01T01:18:22;100342.31;;;-4.07;74.71
78317;BME280;67572;50.930;18.276;2023-03-01T01:21:28;100347.66;;;-3.91;73.71
78317;BME280;67572;50.930;18.276;2023-03-01T01:24:33;100338.28;;;-3.75;73.82
78317;BME280;67572;50.930;18.276;2023-03-01T01:27:38;100332.00;;;-4.00;74.02
78317;BME280;67572;50.930;18.276;2023-03-01T01:30:43;100326.63;;;-4.16;74.90
78317;BME280;67572;50.930;18.276;2023-03-01T01:33:47;100320.56;;;-4.19;75.43
78317;BME280;67572;50.930;18.276;2023-03-01T01:36:53;100311.97;;;-4.11;75.42
78317;BME280;67572;50.930;18.276;2023-03-01T01:40:00;100312.97;;;-3.94;75.54
78317;BME280;67572;50.930;18.276;2023-03-01T01:43:19;100312.81;;;-4.15;75.25
78317;BME280;67572;50.930;18.276;2023-03-01T01:46:28;100315.41;;;-4.15;75.54
78317;BME280;67572;50.930;18.276;2023-03-01T01:49:38;100302.56;;;-4.00;74.98
78317;BME280;67572;50.930;18.276;2023-03-01T01:52:45;100306.56;;;-4.31;75.77
78317;BME280;67572;50.930;18.276;2023-03-01T01:55:55;100307.63;;;-4.15;74.85
78317;BME280;67572;50.930;18.276;2023-03-01T01:59:02;100309.31;;;-4.18;75.16
78317;BME280;67572;50.930;18.276;2023-03-01T02:02:07;100305.09;;;-4.06;74.95
78317;BME280;67572;50.930;18.276;2023-03-01T02:05:24;100299.69;;;-4.26;74.87
78317;BME280;67572;50.930;18.276;2023-03-01T02:08:34;100288.28;;;-4.45;74.98
78317;BME280;67572;50.930;18.276;2023-03-01T02:11:41;100298.78;;;-4.31;75.60
78317;BME280;67572;50.930;18.276;2023-03-01T02:14:49;100297.75;;;-4.49;75.20
78317;BME280;67572;50.930;18.276;2023-03-01T02:17:56;100301.50;;;-4.19;75.33
78317;BME280;67572;50.930;18.276;2023-03-01T02:21:08;100301.44;;;-4.28;75.94
78317;BME280;67572;50.930;18.276;2023-03-01T02:24:24;100311.84;;;-4.24;76.14
78317;BME280;67572;50.930;18.276;2023-03-01T02:27:40;100320.94;;;-4.64;76.31
78317;BME280;67572;50.930;18.276;2023-03-01T02:30:53;100329.59;;;-4.63;77.08
78317;BME280;67572;50.930;18.276;2023-03-01T02:34:19;100323.53;;;-4.65;77.46
78317;BME280;67572;50.930;18.276;2023-03-01T02:37:26;100325.44;;;-4.46;77.66
78317;BME280;67572;50.930;18.276;2023-03-01T02:40:33;100324.81;;;-4.27;77.34
78317;BME280;67572;50.930;18.276;2023-03-01T02:43:47;100326.34;;;-4.44;77.81
78317;BME280;67572;50.930;18.276;2023-03-01T02:46:56;100319.88;;;-3.99;76.94
78317;BME280;67572;50.930;18.276;2023-03-01T02:50:13;100309.72;;;-4.61;76.77
78317;BME280;67572;50.930;18.276;2023-03-01T02:53:28;100312.34;;;-4.58;76.75
78317;BME280;67572;50.930;18.276;2023-03-01T02:56:37;100310.38;;;-4.79;77.12
78317;BME280;67572;50.930;18.276;2023-03-01T02:59:43;100309.75;;;-4.58;76.79
78317;BME280;67572;50.930;18.276;2023-03-01T03:02:51;100313.41;;;-4.41;76.42
78317;BME280;67572;50.930;18.276;2023-03-01T03:05:59;100314.47;;;-4.21;76.08
78317;BME280;67572;50.930;18.276;2023-03-01T03:09:04;100306.56;;;-4.31;75.92
78317;BME280;67572;50.930;18.276;2023-03-01T03:12:10;100303.09;;;-4.32;75.14
78317;BME280;67572;50.930;18.276;2023-03-01T03:15:15;100313.19;;;-4.61;75.39
78317;BME280;67572;50.930;18.276;2023-03-01T03:18:23;100309.59;;;-4.72;76.31
78317;BME280;67572;50.930;18.276;2023-03-01T03:21:30;100310.38;;;-4.78;76.61
78317;BME280;67572;50.930;18.276;2023-03-01T03:24:36;100299.13;;;-4.80;77.05
78317;BME280;67572;50.930;18.276;2023-03-01T03:27:42;100291.63;;;-4.55;76.49
78317;BME280;67572;50.930;18.276;2023-03-01T03:30:47;100293.22;;;-4.68;77.27
78317;BME280;67572;50.930;18.276;2023-03-01T03:33:53;100300.00;;;-4.78;77.43
78317;BME280;67572;50.930;18.276;2023-03-01T03:36:59;100304.22;;;-4.89;77.80
78317;BME280;67572;50.930;18.276;2023-03-01T03:40:03;100302.56;;;-4.82;76.60
78317;BME280;67572;50.930;18.276;2023-03-01T03:43:20;100305.13;;;-4.84;76.85
78317;BME280;67572;50.930;18.276;2023-03-01T03:46:25;100299.44;;;-4.52;76.38
78317;BME280;67572;50.930;18.276;2023-03-01T03:49:30;100287.19;;;-4.67;76.20
78317;BME280;67572;50.930;18.276;2023-03-01T03:52:36;100281.16;;;-4.61;76.65
78317;BME280;67572;50.930;18.276;2023-03-01T03:55:41;100285.28;;;-4.83;76.52
78317;BME280;67572;50.930;18.276;2023-03-01T03:58:47;100282.69;;;-4.82;76.47
78317;BME280;67572;50.930;18.276;2023-03-01T04:01:52;100271.69;;;-4.59;76.43
78317;BME280;67572;50.930;18.276;2023-03-01T04:04:57;100271.53;;;-4.71;76.98
78317;BME280;67572;50.930;18.276;2023-03-01T04:08:02;100276.72;;;-4.73;75.76
78317;BME280;67572;50.930;18.276;2023-03-01T04:11:11;100284.91;;;-4.38;75.58
78317;BME280;67572;50.930;18.276;2023-03-01T04:14:35;100285.53;;;-4.60;75.74
78317;BME280;67572;50.930;18.276;2023-03-01T04:17:42;100279.31;;;-4.71;75.29
78317;BME280;67572;50.930;18.276;2023-03-01T04:20:49;100278.44;;;-4.73;76.26
78317;BME280;67572;50.930;18.276;2023-03-01T04:23:55;100279.03;;;-4.97;76.46
78317;BME280;67572;50.930;18.276;2023-03-01T04:27:01;100280.69;;;-5.04;76.49
78317;BME280;67572;50.930;18.276;2023-03-01T04:30:08;100271.25;;;-4.97;77.15
78317;BME280;67572;50.930;18.276;2023-03-01T04:33:13;100272.38;;;-4.74;77.01
78317;BME280;67572;50.930;18.276;2023-03-01T04:36:20;100261.22;;;-4.68;77.00
78317;BME280;67572;50.930;18.276;2023-03-01T04:39:26;100258.69;;;-4.61;76.36
78317;BME280;67572;50.930;18.276;2023-03-01T04:42:31;100248.97;;;-4.79;76.99
78317;BME280;67572;50.930;18.276;2023-03-01T04:45:36;100255.91;;;-4.79;76.63
78317;BME280;67572;50.930;18.276;2023-03-01T04:48:43;100260.91;;;-4.94;76.77
78317;BME280;67572;50.930;18.276;2023-03-01T04:51:49;100256.75;;;-4.82;76.43
78317;BME280;67572;50.930;18.276;2023-03-01T04:54:54;100263.50;;;-4.94;77.22
78317;BME280;67572;50.930;18.276;2023-03-01T04:57:58;100277.22;;;-5.05;77.79
78317;BME280;67572;50.930;18.276;2023-03-01T05:01:09;100276.59;;;-4.84;77.29
78317;BME280;67572;50.930;18.276;2023-03-01T05:04:18;100277.69;;;-4.63;77.12
78317;BME280;67572;50.930;18.276;2023-03-01T05:07:25;100281.03;;;-4.73;76.58
78317;BME280;67572;50.930;18.276;2023-03-01T05:10:31;100279.06;;;-4.96;76.20
78317;BME280;67572;50.930;18.276;2023-03-01T05:13:38;100283.34;;;-4.98;75.71
78317;BME280;67572;50.930;18.276;2023-03-01T05:16:43;100275.97;;;-5.34;75.69
78317;BME280;67572;50.930;18.276;2023-03-01T05:19:49;100272.41;;;-5.41;76.19
78317;BME280;67572;50.930;18.276;2023-03-01T05:22:57;100269.16;;;-5.26;77.16
78317;BME280;67572;50.930;18.276;2023-03-01T05:26:09;100282.81;;;-5.38;76.41
78317;BME280;67572;50.930;18.276;2023-03-01T05:29:34;100280.28;;;-5.35;76.33
78317;BME280;67572;50.930;18.276;2023-03-01T05:32:44;100276.22;;;-5.14;76.52
78317;BME280;67572;50.930;18.276;2023-03-01T05:35:49;100279.81;;;-5.03;76.92
78317;BME280;67572;50.930;18.276;2023-03-01T05:38:56;100284.13;;;-5.05;77.29
78317;BME280;67572;50.930;18.276;2023-03-01T05:42:01;100287.59;;;-5.03;77.22
78317;BME280;67572;50.930;18.276;2023-03-01T05:45:07;100296.50;;;-4.83;76.28
78317;BME280;67572;50.930;18.276;2023-03-01T05:48:13;100290.13;;;-5.08;77.22
78317;BME280;67572;50.930;18.276;2023-03-01T05:51:17;100295.47;;;-4.98;77.32
78317;BME280;67572;50.930;18.276;2023-03-01T05:54:23;100285.88;;;-5.04;77.04
78317;BME280;67572;50.930;18.276;2023-03-01T05:57:28;100295.19;;;-5.18;76.93
78317;BME280;67572;50.930;18.276;2023-03-01T06:00:33;100296.69;;;-4.67;76.51
78317;BME280;67572;50.930;18.276;2023-03-01T06:03:40;100296.44;;;-4.87;76.31
78317;BME280;67572;50.930;18.276;2023-03-01T06:06:44;100279.84;;;-5.00;76.43
78317;BME280;67572;50.930;18.276;2023-03-01T06:09:49;100288.50;;;-4.99;76.88
78317;BME280;67572;50.930;18.276;2023-03-01T06:12:55;100284.31;;;-4.90;76.62
78317;BME280;67572;50.930;18.276;2023-03-01T06:15:59;100272.84;;;-5.07;77.43
78317;BME280;67572;50.930;18.276;2023-03-01T06:19:05;100267.03;;;-4.89;77.63
78317;BME280;67572;50.930;18.276;2023-03-01T06:22:09;100260.44;;;-4.58;77.75
78317;BME280;67572;50.930;18.276;2023-03-01T06:25:19;100265.41;;;-4.80;77.73
78317;BME280;67572;50.930;18.276;2023-03-01T06:28:25;100260.59;;;-4.41;77.58
78317;BME280;67572;50.930;18.276;2023-03-01T06:39:52;100260.00;;;-4.13;77.20
78317;BME280;67572;50.930;18.276;2023-03-01T06:51:48;100269.03;;;-3.65;77.39
78317;BME280;67572;50.930;18.276;2023-03-01T06:54:54;100269.84;;;-3.71;77.78
78317;BME280;67572;50.930;18.276;2023-03-01T07:02:27;100268.31;;;-3.44;77.32
78317;BME280;67572;50.930;18.276;2023-03-01T07:06:49;100277.25;;;-2.90;77.22
78317;BME280;67572;50.930;18.276;2023-03-01T07:11:13;100283.25;;;-3.07;78.96
78317;BME280;67572;50.930;18.276;2023-03-01T07:25:41;100266.94;;;-2.64;78.46
78317;BME280;67572;50.930;18.276;2023-03-01T07:28:46;100264.44;;;-2.03;76.12
78317;BME280;67572;50.930;18.276;2023-03-01T07:31:50;100270.50;;;-1.87;75.08
78317;BME280;67572;50.930;18.276;2023-03-01T07:34:55;100267.88;;;-1.92;76.78
78317;BME280;67572;50.930;18.276;2023-03-01T07:38:00;100257.47;;;-1.86;76.34
78317;BME280;67572;50.930;18.276;2023-03-01T07:41:08;100253.13;;;-1.93;75.55
78317;BME280;67572;50.930;18.276;2023-03-01T07:44:13;100256.59;;;-1.70;75.52
78317;BME280;67572;50.930;18.276;2023-03-01T07:47:19;100250.47;;;-1.53;74.49
78317;BME280;67572;50.930;18.276;2023-03-01T07:50:25;100249.56;;;-1.45;76.31
78317;BME280;67572;50.930;18.276;2023-03-01T07:53:31;100245.25;;;-1.41;75.68
78317;BME280;67572;50.930;18.276;2023-03-01T07:56:39;100251.31;;;-1.39;75.73
78317;BME280;67572;50.930;18.276;2023-03-01T07:59:45;100247.78;;;-1.20;75.88
78317;BME280;67572;50.930;18.276;2023-03-01T08:02:51;100251.19;;;-0.98;75.35
78317;BME280;67572;50.930;18.276;2023-03-01T08:05:59;100249.28;;;-0.68;74.67
78317;BME280;67572;50.930;18.276;2023-03-01T08:09:05;100245.78;;;-0.60;74.37
78317;BME280;67572;50.930;18.276;2023-03-01T08:12:12;100244.94;;;-0.65;73.94
78317;BME280;67572;50.930;18.276;2023-03-01T08:15:20;100244.84;;;-0.49;72.87
78317;BME280;67572;50.930;18.276;2023-03-01T08:18:27;100241.31;;;-0.38;71.79
78317;BME280;67572;50.930;18.276;2023-03-01T08:21:33;100244.72;;;-0.30;70.92
78317;BME280;67572;50.930;18.276;2023-03-01T08:24:40;100242.03;;;-0.19;69.47
78317;BME280;67572;50.930;18.276;2023-03-01T08:27:47;100248.13;;;-0.23;69.76
78317;BME280;67572;50.930;18.276;2023-03-01T08:30:53;100242.84;;;-0.12;69.09
78317;BME280;67572;50.930;18.276;2023-03-01T08:34:00;100249.06;;;-0.32;67.86
78317;BME280;67572;50.930;18.276;2023-03-01T08:37:07;100247.16;;;-0.08;68.11
78317;BME280;67572;50.930;18.276;2023-03-01T08:40:13;100247.22;;;-0.14;67.88
78317;BME280;67572;50.930;18.276;2023-03-01T08:43:20;100247.97;;;-0.02;67.35
78317;BME280;67572;50.930;18.276;2023-03-01T08:46:31;100242.75;;;0.02;66.72
78317;BME280;67572;50.930;18.276;2023-03-01T08:49:38;100235.66;;;0.14;65.00
78317;BME280;67572;50.930;18.276;2023-03-01T08:52:43;100236.50;;;0.18;65.01
78317;BME280;67572;50.930;18.276;2023-03-01T08:55:48;100235.66;;;0.16;64.32
78317;BME280;67572;50.930;18.276;2023-03-01T08:58:55;100234.66;;;0.31;64.34
78317;BME280;67572;50.930;18.276;2023-03-01T09:02:01;100223.22;;;0.38;62.18
78317;BME280;67572;50.930;18.276;2023-03-01T09:05:07;100219.03;;;0.23;61.25
78317;BME280;67572;50.930;18.276;2023-03-01T09:08:12;100226.78;;;0.29;60.78
78317;BME280;67572;50.930;18.276;2023-03-01T09:11:19;100225.75;;;0.45;60.57
78317;BME280;67572;50.930;18.276;2023-03-01T09:14:26;100220.38;;;0.59;59.46
78317;BME280;67572;50.930;18.276;2023-03-01T09:17:30;100227.34;;;0.62;59.52
78317;BME280;67572;50.930;18.276;2023-03-01T09:20:35;100220.31;;;0.68;59.34
78317;BME280;67572;50.930;18.276;2023-03-01T09:23:41;100216.69;;;0.78;58.64
78317;BME280;67572;50.930;18.276;2023-03-01T09:26:46;100225.53;;;0.70;57.54
78317;BME280;67572;50.930;18.276;2023-03-01T09:29:55;100226.97;;;0.95;59.64
78317;BME280;67572;50.930;18.276;2023-03-01T09:33:00;100226.13;;;0.93;58.74
78317;BME280;67572;50.930;18.276;2023-03-01T09:36:07;100224.34;;;0.95;58.54
78317;BME280;67572;50.930;18.276;2023-03-01T09:39:13;100233.63;;;1.22;60.13
78317;BME280;67572;50.930;18.276;2023-03-01T09:42:19;100230.78;;;1.36;59.82
78317;BME280;67572;50.930;18.276;2023-03-01T09:45:33;100233.97;;;1.58;58.87
78317;BME280;67572;50.930;18.276;2023-03-01T09:48:43;100226.25;;;1.49;56.62
78317;BME280;67572;50.930;18.276;2023-03-01T09:51:57;100223.75;;;1.98;55.56
78317;BME280;67572;50.930;18.276;2023-03-01T09:55:09;100229.13;;;1.90;55.76
78317;BME280;67572;50.930;18.276;2023-03-01T09:58:31;100233.09;;;2.14;54.47
78317;BME280;67572;50.930;18.276;2023-03-01T10:01:48;100229.06;;;2.44;54.16
78317;BME280;67572;50.930;18.276;2023-03-01T10:05:03;100219.72;;;2.30;53.23
78317;BME280;67572;50.930;18.276;2023-03-01T10:08:32;100225.72;;;2.36;52.42
78317;BME280;67572;50.930;18.276;2023-03-01T10:11:44;100226.66;;;2.32;53.81
78317;BME280;67572;50.930;18.276;2023-03-01T10:14:55;100222.72;;;2.58;55.38
78317;BME280;67572;50.930;18.276;2023-03-01T10:18:10;100221.47;;;2.75;54.81
78317;BME280;67572;50.930;18.276;2023-03-01T10:21:19;100211.34;;;2.56;55.52
78317;BME280;67572;50.930;18.276;2023-03-01T10:24:35;100215.59;;;2.63;57.00
78317;BME280;67572;50.930;18.276;2023-03-01T10:27:49;100209.88;;;2.86;55.59
78317;BME280;67572;50.930;18.276;2023-03-01T10:30:57;100201.69;;;3.01;55.00
78317;BME280;67572;50.930;18.276;2023-03-01T10:34:10;100192.41;;;2.85;53.81
78317;BME280;67572;50.930;18.276;2023-03-01T10:37:18;100186.31;;;3.24;54.06
78317;BME280;67572;50.930;18.276;2023-03-01T10:40:26;100187.53;;;3.48;54.50
78317;BME280;67572;50.930;18.276;2023-03-01T10:43:43;100186.13;;;3.32;54.22
78317;BME280;67572;50.930;18.276;2023-03-01T10:46:59;100184.69;;;3.57;53.20
78317;BME280;67572;50.930;18.276;2023-03-01T10:50:23;100178.72;;;3.51;52.69
78317;BME280;67572;50.930;18.276;2023-03-01T10:53:31;100180.78;;;3.74;52.37
78317;BME280;67572;50.930;18.276;2023-03-01T10:56:47;100182.97;;;3.56;51.00
78317;BME280;67572;50.930;18.276;2023-03-01T11:00:01;100182.84;;;3.61;50.43
78317;BME280;67572;50.930;18.276;2023-03-01T11:03:13;100178.03;;;3.80;50.53
78317;BME280;67572;50.930;18.276;2023-03-01T11:06:22;100178.44;;;3.61;51.25
78317;BME280;67572;50.930;18.276;2023-03-01T11:09:32;100171.84;;;3.81;51.38
78317;BME280;67572;50.930;18.276;2023-03-01T11:12:42;100174.84;;;3.66;51.07
78317;BME280;67572;50.930;18.276;2023-03-01T11:15:58;100171.84;;;3.81;50.72
78317;BME280;67572;50.930;18.276;2023-03-01T11:19:16;100158.31;;;3.96;50.75
78317;BME280;67572;50.930;18.276;2023-03-01T11:22:23;100154.94;;;3.91;49.75
78317;BME280;67572;50.930;18.276;2023-03-01T11:25:31;100151.03;;;4.40;49.24
78317;BME280;67572;50.930;18.276;2023-03-01T11:28:40;100153.28;;;4.54;49.96
78317;BME280;67572;50.930;18.276;2023-03-01T11:31:48;100158.06;;;4.70;48.17
78317;BME280;67572;50.930;18.276;2023-03-01T11:35:02;100144.94;;;4.69;48.51
78317;BME280;67572;50.930;18.276;2023-03-01T11:38:19;100146.34;;;5.10;49.02
78317;BME280;67572;50.930;18.276;2023-03-01T11:41:30;100151.06;;;5.28;47.69
78317;BME280;67572;50.930;18.276;2023-03-01T11:44:37;100148.97;;;5.40;46.97
78317;BME280;67572;50.930;18.276;2023-03-01T11:47:58;100151.75;;;5.35;47.55
78317;BME280;67572;50.930;18.276;2023-03-01T11:51:08;100142.16;;;5.87;45.84
78317;BME280;67572;50.930;18.276;2023-03-01T11:54:27;100147.94;;;5.45;46.54
78317;BME280;67572;50.930;18.276;2023-03-01T11:57:46;100142.75;;;4.54;47.61
78317;BME280;67572;50.930;18.276;2023-03-01T12:01:03;100145.06;;;4.64;47.73
78317;BME280;67572;50.930;18.276;2023-03-01T12:04:33;100136.38;;;4.92;48.30
78317;BME280;67572;50.930;18.276;2023-03-01T12:07:45;100132.09;;;5.45;47.99
78317;BME280;67572;50.930;18.276;2023-03-01T12:10:58;100139.34;;;5.39;48.07
78317;BME280;67572;50.930;18.276;2023-03-01T12:14:32;100136.13;;;4.70;48.61
78317;BME280;67572;50.930;18.276;2023-03-01T12:17:51;100133.28;;;5.35;48.20
78317;BME280;67572;50.930;18.276;2023-03-01T12:21:07;100123.31;;;5.71;46.56
78317;BME280;67572;50.930;18.276;2023-03-01T12:28:16;100106.56;;;6.74;47.19
78317;BME280;67572;50.930;18.276;2023-03-01T12:36:06;100100.53;;;6.22;44.87
78317;BME280;67572;50.930;18.276;2023-03-01T12:39:26;100099.22;;;6.33;45.92
78317;BME280;67572;50.930;18.276;2023-03-01T12:42:35;100087.22;;;6.00;46.41
78317;BME280;67572;50.930;18.276;2023-03-01T12:45:50;100090.63;;;6.27;45.72
78317;BME280;67572;50.930;18.276;2023-03-01T12:49:04;100085.13;;;5.30;48.52
78317;BME280;67572;50.930;18.276;2023-03-01T12:52:16;100088.03;;;5.75;48.23
78317;BME280;67572;50.930;18.276;2023-03-01T12:55:29;100078.41;;;6.24;46.94
78317;BME280;67572;50.930;18.276;2023-03-01T12:58:40;100077.72;;;6.67;47.64
78317;BME280;67572;50.930;18.276;2023-03-01T13:02:02;100083.53;;;5.77;45.55
78317;BME280;67572;50.930;18.276;2023-03-01T13:05:23;100079.53;;;5.39;46.65
78317;BME280;67572;50.930;18.276;2023-03-01T13:08:35;100079.19;;;5.50;47.41
78317;BME280;67572;50.930;18.276;2023-03-01T13:11:42;100073.25;;;5.43;47.41
78317;BME280;67572;50.930;18.276;2023-03-01T13:14:47;100079.41;;;6.22;46.01
78317;BME280;67572;50.930;18.276;2023-03-01T13:17:55;100078.19;;;6.30;45.29
78317;BME280;67572;50.930;18.276;2023-03-01T13:21:04;100075.44;;;5.31;45.30
78317;BME280;67572;50.930;18.276;2023-03-01T13:24:26;100071.22;;;5.78;46.13
78317;BME280;67572;50.930;18.276;2023-03-01T13:27:33;100065.50;;;5.92;45.32
78317;BME280;67572;50.930;18.276;2023-03-01T13:30:42;100061.88;;;5.94;45.90
78317;BME280;67572;50.930;18.276;2023-03-01T13:33:48;100059.69;;;6.07;43.48
78317;BME280;67572;50.930;18.276;2023-03-01T13:37:08;100054.03;;;5.40;43.11
78317;BME280;67572;50.930;18.276;2023-03-01T13:43:55;100045.56;;;5.81;42.12
78317;BME280;67572;50.930;18.276;2023-03-01T13:47:05;100041.56;;;5.96;42.10
78317;BME280;67572;50.930;18.276;2023-03-01T13:50:21;100045.41;;;6.13;41.78
78317;BME280;67572;50.930;18.276;2023-03-01T13:53:33;100030.44;;;6.11;41.86
78317;BME280;67572;50.930;18.276;2023-03-01T13:56:39;100035.75;;;6.82;42.84
78317;BME280;67572;50.930;18.276;2023-03-01T13:59:47;100029.22;;;6.68;39.24
78317;BME280;67572;50.930;18.276;2023-03-01T14:03:03;100032.63;;;6.94;39.11
78317;BME280;67572;50.930;18.276;2023-03-01T14:06:14;100023.88;;;6.70;38.44
78317;BME280;67572;50.930;18.276;2023-03-01T14:09:27;100025.41;;;6.76;38.63
78317;BME280;67572;50.930;18.276;2023-03-01T14:12:41;100027.88;;;6.57;39.93
78317;BME280;67572;50.930;18.276;2023-03-01T14:16:01;100021.25;;;6.47;41.04
78317;BME280;67572;50.930;18.276;2023-03-01T14:19:17;100012.63;;;6.18;40.72
78317;BME280;67572;50.930;18.276;2023-03-01T14:22:40;100008.25;;;5.67;41.25
78317;BME280;67572;50.930;18.276;2023-03-01T14:25:48;99995.09;;;5.92;42.19
78317;BME280;67572;50.930;18.276;2023-03-01T14:28:54;99997.00;;;6.12;40.78
78317;BME280;67572;50.930;18.276;2023-03-01T14:32:20;99994.34;;;5.87;41.52
78317;BME280;67572;50.930;18.276;2023-03-01T14:35:28;99990.41;;;5.74;41.66
78317;BME280;67572;50.930;18.276;2023-03-01T14:38:37;99989.63;;;5.97;40.81
78317;BME280;67572;50.930;18.276;2023-03-01T14:41:43;99984.19;;;6.01;42.43
78317;BME280;67572;50.930;18.276;2023-03-01T14:44:49;99990.97;;;5.83;40.51
78317;BME280;67572;50.930;18.276;2023-03-01T14:47:55;99979.78;;;6.02;39.49
78317;BME280;67572;50.930;18.276;2023-03-01T14:51:05;99978.53;;;5.62;40.84
78317;BME280;67572;50.930;18.276;2023-03-01T14:54:21;99972.72;;;5.77;39.67
78317;BME280;67572;50.930;18.276;2023-03-01T14:57:26;99974.44;;;5.53;40.12
78317;BME280;67572;50.930;18.276;2023-03-01T15:00:33;99979.31;;;5.64;40.75
78317;BME280;67572;50.930;18.276;2023-03-01T15:03:42;99972.47;;;5.34;40.65
78317;BME280;67572;50.930;18.276;2023-03-01T15:06:50;99970.00;;;5.29;40.45
78317;BME280;67572;50.930;18.276;2023-03-01T15:09:58;99976.59;;;5.16;41.59
78317;BME280;67572;50.930;18.276;2023-03-01T15:13:11;99980.22;;;4.85;41.32
78317;BME280;67572;50.930;18.276;2023-03-01T15:16:18;99986.78;;;4.72;43.10
78317;BME280;67572;50.930;18.276;2023-03-01T15:19:26;99978.25;;;4.64;41.03
78317;BME280;67572;50.930;18.276;2023-03-01T15:22:32;99979.56;;;4.79;40.71
78317;BME280;67572;50.930;18.276;2023-03-01T15:25:37;99987.16;;;4.32;43.93
78317;BME280;67572;50.930;18.276;2023-03-01T15:28:51;99986.91;;;4.10;43.73
78317;BME280;67572;50.930;18.276;2023-03-01T15:32:01;99986.41;;;4.27;42.63
78317;BME280;67572;50.930;18.276;2023-03-01T15:35:41;99981.22;;;3.94;43.74
78317;BME280;67572;50.930;18.276;2023-03-01T15:38:55;99994.81;;;3.77;46.35
78317;BME280;67572;50.930;18.276;2023-03-01T15:42:03;99991.06;;;3.53;47.63
78317;BME280;67572;50.930;18.276;2023-03-01T15:45:09;99994.56;;;3.54;45.68
78317;BME280;67572;50.930;18.276;2023-03-01T15:48:17;100006.53;;;3.33;47.32
78317;BME280;67572;50.930;18.276;2023-03-01T15:51:34;99996.56;;;3.44;45.07
78317;BME280;67572;50.930;18.276;2023-03-01T15:54:39;100001.22;;;3.34;45.66
78317;BME280;67572;50.930;18.276;2023-03-01T15:57:45;99997.69;;;3.36;49.81
78317;BME280;67572;50.930;18.276;2023-03-01T16:00:49;100002.53;;;2.81;51.83
78317;BME280;67572;50.930;18.276;2023-03-01T16:04:03;100019.44;;;2.68;53.24
78317;BME280;67572;50.930;18.276;2023-03-01T16:07:09;100013.13;;;2.76;54.79
78317;BME280;67572;50.930;18.276;2023-03-01T16:10:12;100023.56;;;2.39;56.61
78317;BME280;67572;50.930;18.276;2023-03-01T16:13:19;100017.53;;;2.34;55.99
78317;BME280;67572;50.930;18.276;2023-03-01T16:16:25;100013.38;;;2.24;55.68
78317;BME280;67572;50.930;18.276;2023-03-01T16:19:31;100013.50;;;2.18;54.63
78317;BME280;67572;50.930;18.276;2023-03-01T16:22:37;100012.25;;;1.94;54.59
78317;BME280;67572;50.930;18.276;2023-03-01T16:25:41;100009.44;;;2.05;51.43
78317;BME280;67572;50.930;18.276;2023-03-01T16:28:47;100012.56;;;2.22;50.26
78317;BME280;67572;50.930;18.276;2023-03-01T16:31:52;100011.75;;;2.20;50.23
78317;BME280;67572;50.930;18.276;2023-03-01T16:34:56;100005.13;;;2.01;49.37
78317;BME280;67572;50.930;18.276;2023-03-01T16:38:00;100010.25;;;2.07;48.54
78317;BME280;67572;50.930;18.276;2023-03-01T16:41:11;100007.72;;;2.02;47.71
78317;BME280;67572;50.930;18.276;2023-03-01T16:44:17;100014.94;;;1.45;50.14
78317;BME280;67572;50.930;18.276;2023-03-01T16:47:21;100012.63;;;1.25;52.53
78317;BME280;67572;50.930;18.276;2023-03-01T16:50:26;100014.63;;;1.10;53.40
78317;BME280;67572;50.930;18.276;2023-03-01T16:53:32;100018.84;;;1.19;54.06
78317;BME280;67572;50.930;18.276;2023-03-01T16:56:38;100019.97;;;1.03;51.81
78317;BME280;67572;50.930;18.276;2023-03-01T16:59:44;100020.88;;;1.02;52.01
78317;BME280;67572;50.930;18.276;2023-03-01T17:02:50;100022.00;;;0.86;52.77
78317;BME280;67572;50.930;18.276;2023-03-01T17:05:55;100031.06;;;-0.09;58.63
78317;BME280;67572;50.930;18.276;2023-03-01T17:08:59;100025.00;;;-0.11;57.97